sensor_id;sensor_type;location;lat;lon;timestamp;P1;durP1;ratioP1;P2;durP2;ratioP2
32760;SDS011;19126;47.472;7.850;2023-06-22T00:01:17;22.77;;;10.75;;
32760;SDS011;19126;47.472;7.850;2023-06-22T00:03:46;26.85;;;10.63;;
32760;SDS011;19126;47.472;7.850;2023-06-22T00:06:15;17.90;;;10.30;;
32760;SDS011;19126;47.472;7.850;2023-06-22T00:08:42;32.45;;;10.77;;
32760;SDS011;19126;47.472;7.850;2023-06-22T00:11:09;22.98;;;10.90;;
32760;SDS011;19126;47.472;7.850;2023-06-22T00:13:37;25.35;;;10.07;;
32760;SDS011;19126;47.472;7.850;2023-06-22T00:16:05;25.88;;;9.88;;
32760;SDS011;19126;47.472;7.850;2023-06-22T00:18:32;23.70;;;10.10;;
32760;SDS011;19126;47.472;7.850;2023-06-22T00:21:00;20.52;;;9.60;;
32760;SDS011;19126;47.472;7.850;2023-06-22T00:23:28;18.58;;;8.63;;
32760;SDS011;19126;47.472;7.850;2023-06-22T00:25:59;22.52;;;10.63;;
32760;SDS011;19126;47.472;7.850;2023-06-22T00:28:26;23.63;;;9.40;;
32760;SDS011;19126;47.472;7.850;2023-06-22T00:30:54;26.10;;;11.45;;
32760;SDS011;19126;47.472;7.850;2023-06-22T00:33:21;21.33;;;9.75;;
32760;SDS011;19126;47.472;7.850;2023-06-22T00:35:48;21.90;;;9.45;;
32760;SDS011;19126;47.472;7.850;2023-06-22T00:38:17;21.35;;;9.95;;
32760;SDS011;19126;47.472;7.850;2023-06-22T00:40:46;23.50;;;10.55;;
32760;SDS011;19126;47.472;7.850;2023-06-22T00:43:13;28.42;;;9.75;;
32760;SDS011;19126;47.472;7.850;2023-06-22T00:45:41;22.75;;;9.57;;
32760;SDS011;19126;47.472;7.850;2023-06-22T00:48:08;30.13;;;10.00;;
32760;SDS011;19126;47.472;7.850;2023-06-22T00:50:36;22.38;;;8.82;;
32760;SDS011;19126;47.472;7.850;2023-06-22T00:53:04;28.75;;;10.82;;
32760;SDS011;19126;47.472;7.850;2023-06-22T00:55:33;23.10;;;9.10;;
32760;SDS011;19126;47.472;7.850;2023-06-22T00:58:05;29.23;;;10.50;;
32760;SDS011;19126;47.472;7.850;2023-06-22T01:00:35;23.05;;;10.60;;
32760;SDS011;19126;47.472;7.850;2023-06-22T01:03:03;24.25;;;10.13;;
32760;SDS011;19126;47.472;7.850;2023-06-22T01:05:34;26.67;;;9.77;;
32760;SDS011;19126;47.472;7.850;2023-06-22T01:08:06;24.27;;;11.13;;
32760;SDS011;19126;47.472;7.850;2023-06-22T01:10:48;20.90;;;9.63;;
32760;SDS011;19126;47.472;7.850;2023-06-22T01:13:29;24.85;;;9.88;;
32760;SDS011;19126;47.472;7.850;2023-06-22T01:16:05;24.45;;;10.70;;
32760;SDS011;19126;47.472;7.850;2023-06-22T01:18:40;20.58;;;9.77;;
32760;SDS011;19126;47.472;7.850;2023-06-22T01:21:09;32.72;;;10.68;;
32760;SDS011;19126;47.472;7.850;2023-06-22T01:23:50;30.25;;;10.77;;
32760;SDS011;19126;47.472;7.850;2023-06-22T01:26:36;29.92;;;10.60;;
32760;SDS011;19126;47.472;7.850;2023-06-22T01:29:10;19.60;;;10.50;;
32760;SDS011;19126;47.472;7.850;2023-06-22T01:31:40;23.73;;;10.90;;
32760;SDS011;19126;47.472;7.850;2023-06-22T01:34:08;21.60;;;9.52;;
32760;SDS011;19126;47.472;7.850;2023-06-22T01:36:36;35.78;;;9.65;;
32760;SDS011;19126;47.472;7.850;2023-06-22T01:39:05;21.55;;;9.25;;
32760;SDS011;19126;47.472;7.850;2023-06-22T01:41:34;23.02;;;9.52;;
32760;SDS011;19126;47.472;7.850;2023-06-22T01:44:04;21.30;;;9.07;;
32760;SDS011;19126;47.472;7.850;2023-06-22T01:46:35;24.00;;;9.95;;
32760;SDS011;19126;47.472;7.850;2023-06-22T01:49:03;20.75;;;10.93;;
32760;SDS011;19126;47.472;7.850;2023-06-22T01:51:32;22.83;;;9.98;;
32760;SDS011;19126;47.472;7.850;2023-06-22T01:54:00;30.65;;;11.20;;
32760;SDS011;19126;47.472;7.850;2023-06-22T01:56:28;29.30;;;11.23;;
32760;SDS011;19126;47.472;7.850;2023-06-22T01:58:59;20.20;;;10.30;;
32760;SDS011;19126;47.472;7.850;2023-06-22T02:01:38;22.92;;;11.07;;
32760;SDS011;19126;47.472;7.850;2023-06-22T02:04:11;23.55;;;12.02;;
32760;SDS011;19126;47.472;7.850;2023-06-22T02:06:45;33.38;;;12.05;;
32760;SDS011;19126;47.472;7.850;2023-06-22T02:09:17;31.52;;;14.35;;
32760;SDS011;19126;47.472;7.850;2023-06-22T02:11:48;22.40;;;12.25;;
32760;SDS011;19126;47.472;7.850;2023-06-22T02:16:49;28.77;;;13.15;;
32760;SDS011;19126;47.472;7.850;2023-06-22T02:19:22;30.70;;;13.68;;
32760;SDS011;19126;47.472;7.850;2023-06-22T02:21:49;37.08;;;14.90;;
32760;SDS011;19126;47.472;7.850;2023-06-22T02:24:17;31.38;;;15.52;;
32760;SDS011;19126;47.472;7.850;2023-06-22T02:26:44;32.53;;;13.52;;
32760;SDS011;19126;47.472;7.850;2023-06-22T02:29:12;24.35;;;13.15;;
32760;SDS011;19126;47.472;7.850;2023-06-22T02:31:39;31.60;;;13.93;;
32760;SDS011;19126;47.472;7.850;2023-06-22T02:34:08;27.23;;;12.05;;
32760;SDS011;19126;47.472;7.850;2023-06-22T02:36:35;41.75;;;15.00;;
32760;SDS011;19126;47.472;7.850;2023-06-22T02:39:03;40.28;;;14.32;;
32760;SDS011;19126;47.472;7.850;2023-06-22T02:41:30;24.48;;;12.65;;
32760;SDS011;19126;47.472;7.850;2023-06-22T02:43:57;29.38;;;13.73;;
32760;SDS011;19126;47.472;7.850;2023-06-22T02:46:24;18.90;;;11.20;;
32760;SDS011;19126;47.472;7.850;2023-06-22T02:48:52;20.77;;;11.45;;
32760;SDS011;19126;47.472;7.850;2023-06-22T02:51:21;32.53;;;12.07;;
32760;SDS011;19126;47.472;7.850;2023-06-22T02:53:48;14.95;;;10.55;;
32760;SDS011;19126;47.472;7.850;2023-06-22T02:56:17;23.63;;;11.27;;
32760;SDS011;19126;47.472;7.850;2023-06-22T02:58:49;21.95;;;11.80;;
32760;SDS011;19126;47.472;7.850;2023-06-22T03:01:17;22.02;;;12.88;;
32760;SDS011;19126;47.472;7.850;2023-06-22T03:03:48;26.65;;;12.15;;
32760;SDS011;19126;47.472;7.850;2023-06-22T03:06:15;26.55;;;11.90;;
32760;SDS011;19126;47.472;7.850;2023-06-22T03:08:50;22.10;;;11.50;;
32760;SDS011;19126;47.472;7.850;2023-06-22T03:11:17;30.73;;;13.25;;
32760;SDS011;19126;47.472;7.850;2023-06-22T03:13:45;26.10;;;11.25;;
32760;SDS011;19126;47.472;7.850;2023-06-22T03:16:12;23.88;;;12.13;;
32760;SDS011;19126;47.472;7.850;2023-06-22T03:18:39;20.27;;;11.05;;
32760;SDS011;19126;47.472;7.850;2023-06-22T03:21:07;18.17;;;10.85;;
32760;SDS011;19126;47.472;7.850;2023-06-22T03:23:34;26.70;;;11.82;;
32760;SDS011;19126;47.472;7.850;2023-06-22T03:26:03;21.98;;;11.38;;
32760;SDS011;19126;47.472;7.850;2023-06-22T03:28:30;34.10;;;12.15;;
32760;SDS011;19126;47.472;7.850;2023-06-22T03:30:57;15.75;;;10.85;;
32760;SDS011;19126;47.472;7.850;2023-06-22T03:33:25;24.67;;;12.20;;
32760;SDS011;19126;47.472;7.850;2023-06-22T03:35:52;19.60;;;11.70;;
32760;SDS011;19126;47.472;7.850;2023-06-22T03:38:20;20.45;;;10.95;;
32760;SDS011;19126;47.472;7.850;2023-06-22T03:40:47;24.13;;;10.27;;
32760;SDS011;19126;47.472;7.850;2023-06-22T03:43:16;24.60;;;10.65;;
32760;SDS011;19126;47.472;7.850;2023-06-22T03:45:43;23.27;;;10.77;;
32760;SDS011;19126;47.472;7.850;2023-06-22T03:48:11;23.67;;;10.50;;
32760;SDS011;19126;47.472;7.850;2023-06-22T03:50:38;25.73;;;10.88;;
32760;SDS011;19126;47.472;7.850;2023-06-22T03:53:06;22.73;;;11.57;;
32760;SDS011;19126;47.472;7.850;2023-06-22T03:55:33;25.48;;;11.02;;
32760;SDS011;19126;47.472;7.850;2023-06-22T03:58:01;29.08;;;11.30;;
32760;SDS011;19126;47.472;7.850;2023-06-22T04:00:32;19.90;;;10.32;;
32760;SDS011;19126;47.472;7.850;2023-06-22T04:02:59;35.55;;;12.32;;
32760;SDS011;19126;47.472;7.850;2023-06-22T04:05:26;25.30;;;11.07;;
32760;SDS011;19126;47.472;7.850;2023-06-22T04:07:54;23.80;;;11.13;;
32760;SDS011;19126;47.472;7.850;2023-06-22T04:10:21;33.60;;;12.65;;
32760;SDS011;19126;47.472;7.850;2023-06-22T04:12:48;23.45;;;11.85;;
32760;SDS011;19126;47.472;7.850;2023-06-22T04:15:15;23.85;;;10.90;;
32760;SDS011;19126;47.472;7.850;2023-06-22T04:17:44;19.35;;;12.15;;
32760;SDS011;19126;47.472;7.850;2023-06-22T04:20:11;23.40;;;10.85;;
32760;SDS011;19126;47.472;7.850;2023-06-22T04:22:39;24.10;;;11.10;;
32760;SDS011;19126;47.472;7.850;2023-06-22T04:25:06;29.92;;;11.10;;
32760;SDS011;19126;47.472;7.850;2023-06-22T04:27:34;31.45;;;12.15;;
32760;SDS011;19126;47.472;7.850;2023-06-22T04:30:02;22.92;;;10.68;;
32760;SDS011;19126;47.472;7.850;2023-06-22T04:32:32;18.15;;;10.38;;
32760;SDS011;19126;47.472;7.850;2023-06-22T04:35:02;26.52;;;12.15;;
32760;SDS011;19126;47.472;7.850;2023-06-22T04:37:31;19.33;;;11.23;;
32760;SDS011;19126;47.472;7.850;2023-06-22T04:39:59;28.52;;;11.30;;
32760;SDS011;19126;47.472;7.850;2023-06-22T04:42:26;21.30;;;11.77;;
32760;SDS011;19126;47.472;7.850;2023-06-22T04:44:54;26.85;;;12.52;;
32760;SDS011;19126;47.472;7.850;2023-06-22T04:47:21;22.45;;;12.23;;
32760;SDS011;19126;47.472;7.850;2023-06-22T04:49:48;21.17;;;11.25;;
32760;SDS011;19126;47.472;7.850;2023-06-22T04:52:17;19.52;;;11.23;;
32760;SDS011;19126;47.472;7.850;2023-06-22T04:54:45;18.73;;;11.48;;
32760;SDS011;19126;47.472;7.850;2023-06-22T04:57:15;19.70;;;11.10;;
32760;SDS011;19126;47.472;7.850;2023-06-22T04:59:42;34.13;;;11.63;;
32760;SDS011;19126;47.472;7.850;2023-06-22T05:02:10;21.90;;;11.73;;
32760;SDS011;19126;47.472;7.850;2023-06-22T05:04:37;31.40;;;12.07;;
32760;SDS011;19126;47.472;7.850;2023-06-22T05:07:05;21.38;;;11.98;;
32760;SDS011;19126;47.472;7.850;2023-06-22T05:09:33;37.13;;;13.88;;
32760;SDS011;19126;47.472;7.850;2023-06-22T05:12:01;23.27;;;12.85;;
32760;SDS011;19126;47.472;7.850;2023-06-22T05:14:29;25.25;;;12.05;;
32760;SDS011;19126;47.472;7.850;2023-06-22T05:16:57;40.50;;;12.73;;
32760;SDS011;19126;47.472;7.850;2023-06-22T05:19:29;22.05;;;11.27;;
32760;SDS011;19126;47.472;7.850;2023-06-22T05:21:58;31.10;;;12.43;;
32760;SDS011;19126;47.472;7.850;2023-06-22T05:24:25;25.48;;;11.55;;
32760;SDS011;19126;47.472;7.850;2023-06-22T05:26:54;31.92;;;11.77;;
32760;SDS011;19126;47.472;7.850;2023-06-22T05:29:21;26.88;;;12.18;;
32760;SDS011;19126;47.472;7.850;2023-06-22T05:31:48;27.27;;;11.55;;
32760;SDS011;19126;47.472;7.850;2023-06-22T05:34:16;26.98;;;13.27;;
32760;SDS011;19126;47.472;7.850;2023-06-22T05:36:43;30.42;;;11.50;;
32760;SDS011;19126;47.472;7.850;2023-06-22T05:39:11;28.27;;;11.27;;
32760;SDS011;19126;47.472;7.850;2023-06-22T05:41:40;26.13;;;11.07;;
32760;SDS011;19126;47.472;7.850;2023-06-22T05:44:09;24.08;;;11.52;;
32760;SDS011;19126;47.472;7.850;2023-06-22T05:46:37;32.88;;;10.80;;
32760;SDS011;19126;47.472;7.850;2023-06-22T05:49:09;23.08;;;10.32;;
32760;SDS011;19126;47.472;7.850;2023-06-22T05:51:36;26.20;;;10.93;;
32760;SDS011;19126;47.472;7.850;2023-06-22T05:54:03;22.02;;;11.15;;
32760;SDS011;19126;47.472;7.850;2023-06-22T05:56:31;28.23;;;11.60;;
32760;SDS011;19126;47.472;7.850;2023-06-22T05:58:58;29.33;;;11.40;;
32760;SDS011;19126;47.472;7.850;2023-06-22T06:01:27;21.63;;;10.10;;
32760;SDS011;19126;47.472;7.850;2023-06-22T06:03:56;37.55;;;11.68;;
32760;SDS011;19126;47.472;7.850;2023-06-22T06:06:23;34.08;;;11.35;;
32760;SDS011;19126;47.472;7.850;2023-06-22T06:08:53;23.73;;;9.98;;
32760;SDS011;19126;47.472;7.850;2023-06-22T06:11:21;26.60;;;11.02;;
32760;SDS011;19126;47.472;7.850;2023-06-22T06:13:48;24.58;;;11.27;;
32760;SDS011;19126;47.472;7.850;2023-06-22T06:16:15;26.45;;;10.77;;
32760;SDS011;19126;47.472;7.850;2023-06-22T06:18:44;24.13;;;10.40;;
32760;SDS011;19126;47.472;7.850;2023-06-22T06:21:13;27.88;;;10.38;;
32760;SDS011;19126;47.472;7.850;2023-06-22T06:23:40;26.13;;;8.93;;
32760;SDS011;19126;47.472;7.850;2023-06-22T06:26:08;21.02;;;9.48;;
32760;SDS011;19126;47.472;7.850;2023-06-22T06:28:35;21.85;;;9.90;;
32760;SDS011;19126;47.472;7.850;2023-06-22T06:31:03;23.77;;;8.65;;
32760;SDS011;19126;47.472;7.850;2023-06-22T06:33:32;26.38;;;8.70;;
32760;SDS011;19126;47.472;7.850;2023-06-22T06:36:00;25.52;;;9.45;;
32760;SDS011;19126;47.472;7.850;2023-06-22T06:38:28;26.10;;;9.35;;
32760;SDS011;19126;47.472;7.850;2023-06-22T06:40:56;17.35;;;8.63;;
32760;SDS011;19126;47.472;7.850;2023-06-22T06:43:24;17.55;;;7.85;;
32760;SDS011;19126;47.472;7.850;2023-06-22T06:45:52;24.67;;;8.68;;
32760;SDS011;19126;47.472;7.850;2023-06-22T06:48:19;19.35;;;7.68;;
32760;SDS011;19126;47.472;7.850;2023-06-22T06:50:46;21.05;;;7.82;;
32760;SDS011;19126;47.472;7.850;2023-06-22T06:53:15;18.83;;;7.85;;
32760;SDS011;19126;47.472;7.850;2023-06-22T06:55:42;18.50;;;6.78;;
32760;SDS011;19126;47.472;7.850;2023-06-22T06:58:10;20.90;;;8.02;;
32760;SDS011;19126;47.472;7.850;2023-06-22T07:00:38;18.33;;;7.93;;
32760;SDS011;19126;47.472;7.850;2023-06-22T07:03:05;21.92;;;7.20;;
32760;SDS011;19126;47.472;7.850;2023-06-22T07:05:33;22.13;;;7.47;;
32760;SDS011;19126;47.472;7.850;2023-06-22T07:08:00;25.55;;;8.35;;
32760;SDS011;19126;47.472;7.850;2023-06-22T07:10:29;15.95;;;8.52;;
32760;SDS011;19126;47.472;7.850;2023-06-22T07:12:57;19.40;;;8.15;;
32760;SDS011;19126;47.472;7.850;2023-06-22T07:15:24;29.00;;;9.32;;
32760;SDS011;19126;47.472;7.850;2023-06-22T07:17:51;20.80;;;7.72;;
32760;SDS011;19126;47.472;7.850;2023-06-22T07:20:19;19.10;;;8.35;;
32760;SDS011;19126;47.472;7.850;2023-06-22T07:22:46;17.85;;;7.88;;
32760;SDS011;19126;47.472;7.850;2023-06-22T07:25:13;20.25;;;8.68;;
32760;SDS011;19126;47.472;7.850;2023-06-22T07:27:56;23.65;;;8.32;;
32760;SDS011;19126;47.472;7.850;2023-06-22T07:30:26;19.50;;;8.30;;
32760;SDS011;19126;47.472;7.850;2023-06-22T07:32:54;19.42;;;8.55;;
32760;SDS011;19126;47.472;7.850;2023-06-22T07:35:21;19.90;;;7.68;;
32760;SDS011;19126;47.472;7.850;2023-06-22T07:37:49;23.65;;;8.95;;
32760;SDS011;19126;47.472;7.850;2023-06-22T07:40:16;23.20;;;7.78;;
32760;SDS011;19126;47.472;7.850;2023-06-22T07:42:44;21.02;;;8.40;;
32760;SDS011;19126;47.472;7.850;2023-06-22T07:45:14;21.50;;;7.78;;
32760;SDS011;19126;47.472;7.850;2023-06-22T07:47:41;25.95;;;8.90;;
32760;SDS011;19126;47.472;7.850;2023-06-22T07:50:09;22.10;;;8.30;;
32760;SDS011;19126;47.472;7.850;2023-06-22T07:52:37;20.33;;;9.35;;
32760;SDS011;19126;47.472;7.850;2023-06-22T07:55:04;19.67;;;7.90;;
32760;SDS011;19126;47.472;7.850;2023-06-22T07:57:32;17.52;;;7.78;;
32760;SDS011;19126;47.472;7.850;2023-06-22T07:59:59;23.30;;;8.85;;
32760;SDS011;19126;47.472;7.850;2023-06-22T08:02:30;23.58;;;8.38;;
32760;SDS011;19126;47.472;7.850;2023-06-22T08:04:57;19.85;;;7.93;;
32760;SDS011;19126;47.472;7.850;2023-06-22T08:07:25;23.55;;;7.65;;
32760;SDS011;19126;47.472;7.850;2023-06-22T08:09:52;26.73;;;8.63;;
32760;SDS011;19126;47.472;7.850;2023-06-22T08:12:19;30.42;;;9.20;;
32760;SDS011;19126;47.472;7.850;2023-06-22T08:14:46;22.13;;;7.28;;
32760;SDS011;19126;47.472;7.850;2023-06-22T08:17:14;20.08;;;7.60;;
32760;SDS011;19126;47.472;7.850;2023-06-22T08:19:43;29.70;;;8.15;;
32760;SDS011;19126;47.472;7.850;2023-06-22T08:22:10;23.02;;;6.80;;
32760;SDS011;19126;47.472;7.850;2023-06-22T08:24:37;26.23;;;8.65;;
32760;SDS011;19126;47.472;7.850;2023-06-22T08:27:06;20.00;;;7.35;;
32760;SDS011;19126;47.472;7.850;2023-06-22T08:29:37;17.60;;;7.53;;
32760;SDS011;19126;47.472;7.850;2023-06-22T08:32:04;19.92;;;6.93;;
32760;SDS011;19126;47.472;7.850;2023-06-22T08:34:32;17.45;;;7.75;;
32760;SDS011;19126;47.472;7.850;2023-06-22T08:37:01;25.05;;;7.78;;
32760;SDS011;19126;47.472;7.850;2023-06-22T08:39:31;25.92;;;7.53;;
32760;SDS011;19126;47.472;7.850;2023-06-22T08:41:58;22.27;;;7.10;;
32760;SDS011;19126;47.472;7.850;2023-06-22T08:44:26;21.85;;;8.00;;
32760;SDS011;19126;47.472;7.850;2023-06-22T08:46:53;20.55;;;7.53;;
32760;SDS011;19126;47.472;7.850;2023-06-22T08:49:21;22.83;;;7.63;;
32760;SDS011;19126;47.472;7.850;2023-06-22T08:51:48;28.80;;;8.38;;
32760;SDS011;19126;47.472;7.850;2023-06-22T08:54:19;20.38;;;7.35;;
32760;SDS011;19126;47.472;7.850;2023-06-22T08:56:47;19.00;;;6.35;;
32760;SDS011;19126;47.472;7.850;2023-06-22T08:59:14;22.45;;;7.47;;
32760;SDS011;19126;47.472;7.850;2023-06-22T09:01:41;17.48;;;7.00;;
32760;SDS011;19126;47.472;7.850;2023-06-22T09:04:10;25.30;;;6.50;;
32760;SDS011;19126;47.472;7.850;2023-06-22T09:06:38;23.30;;;7.75;;
32760;SDS011;19126;47.472;7.850;2023-06-22T09:09:10;19.23;;;8.30;;
32760;SDS011;19126;47.472;7.850;2023-06-22T09:11:40;16.92;;;6.72;;
32760;SDS011;19126;47.472;7.850;2023-06-22T09:14:07;17.02;;;7.03;;
32760;SDS011;19126;47.472;7.850;2023-06-22T09:16:35;19.08;;;7.38;;
32760;SDS011;19126;47.472;7.850;2023-06-22T09:19:02;33.40;;;7.75;;
32760;SDS011;19126;47.472;7.850;2023-06-22T09:21:29;21.38;;;7.28;;
32760;SDS011;19126;47.472;7.850;2023-06-22T09:23:57;24.23;;;7.38;;
32760;SDS011;19126;47.472;7.850;2023-06-22T09:26:24;16.25;;;6.13;;
32760;SDS011;19126;47.472;7.850;2023-06-22T09:28:53;22.10;;;7.35;;
32760;SDS011;19126;47.472;7.850;2023-06-22T09:31:20;29.35;;;7.30;;
32760;SDS011;19126;47.472;7.850;2023-06-22T09:33:50;19.45;;;7.22;;
32760;SDS011;19126;47.472;7.850;2023-06-22T09:36:19;17.45;;;5.88;;
32760;SDS011;19126;47.472;7.850;2023-06-22T09:38:47;22.50;;;6.55;;
32760;SDS011;19126;47.472;7.850;2023-06-22T09:41:20;18.52;;;7.07;;
32760;SDS011;19126;47.472;7.850;2023-06-22T09:43:48;16.52;;;6.75;;
32760;SDS011;19126;47.472;7.850;2023-06-22T09:46:17;15.57;;;7.30;;
32760;SDS011;19126;47.472;7.850;2023-06-22T09:48:46;27.52;;;8.02;;
32760;SDS011;19126;47.472;7.850;2023-06-22T09:51:14;24.52;;;7.35;;
32760;SDS011;19126;47.472;7.850;2023-06-22T09:53:41;15.45;;;6.35;;
32760;SDS011;19126;47.472;7.850;2023-06-22T09:56:09;23.17;;;7.50;;
32760;SDS011;19126;47.472;7.850;2023-06-22T09:58:40;21.45;;;7.28;;
32760;SDS011;19126;47.472;7.850;2023-06-22T10:01:08;25.83;;;6.93;;
32760;SDS011;19126;47.472;7.850;2023-06-22T10:03:37;26.25;;;5.93;;
32760;SDS011;19126;47.472;7.850;2023-06-22T10:06:04;20.08;;;6.53;;
32760;SDS011;19126;47.472;7.850;2023-06-22T10:08:32;27.65;;;6.68;;
32760;SDS011;19126;47.472;7.850;2023-06-22T10:10:59;23.70;;;7.13;;
32760;SDS011;19126;47.472;7.850;2023-06-22T10:13:27;25.92;;;7.65;;
32760;SDS011;19126;47.472;7.850;2023-06-22T10:15:54;34.53;;;8.60;;
32760;SDS011;19126;47.472;7.850;2023-06-22T10:18:21;25.42;;;8.30;;
32760;SDS011;19126;47.472;7.850;2023-06-22T10:20:50;21.95;;;7.82;;
32760;SDS011;19126;47.472;7.850;2023-06-22T10:23:19;30.23;;;7.68;;
32760;SDS011;19126;47.472;7.850;2023-06-22T10:25:47;28.75;;;8.68;;
32760;SDS011;19126;47.472;7.850;2023-06-22T10:28:14;20.67;;;8.63;;
32760;SDS011;19126;47.472;7.850;2023-06-22T10:30:42;33.92;;;8.52;;
32760;SDS011;19126;47.472;7.850;2023-06-22T10:33:09;21.73;;;7.20;;
32760;SDS011;19126;47.472;7.850;2023-06-22T10:35:38;27.48;;;8.35;;
32760;SDS011;19126;47.472;7.850;2023-06-22T10:38:07;21.77;;;7.25;;
32760;SDS011;19126;47.472;7.850;2023-06-22T10:40:34;28.42;;;8.10;;
32760;SDS011;19126;47.472;7.850;2023-06-22T10:43:01;31.17;;;7.47;;
32760;SDS011;19126;47.472;7.850;2023-06-22T10:45:29;19.23;;;6.93;;
32760;SDS011;19126;47.472;7.850;2023-06-22T10:47:56;24.50;;;7.28;;
32760;SDS011;19126;47.472;7.850;2023-06-22T10:50:24;29.15;;;7.63;;
32760;SDS011;19126;47.472;7.850;2023-06-22T10:52:52;23.45;;;7.40;;
32760;SDS011;19126;47.472;7.850;2023-06-22T10:55:21;23.52;;;8.05;;
32760;SDS011;19126;47.472;7.850;2023-06-22T10:57:48;19.45;;;8.13;;
32760;SDS011;19126;47.472;7.850;2023-06-22T11:00:17;20.80;;;7.32;;
32760;SDS011;19126;47.472;7.850;2023-06-22T11:02:46;15.65;;;7.63;;
32760;SDS011;19126;47.472;7.850;2023-06-22T11:05:14;18.48;;;6.32;;
32760;SDS011;19126;47.472;7.850;2023-06-22T11:07:41;26.63;;;8.18;;
32760;SDS011;19126;47.472;7.850;2023-06-22T11:10:09;29.80;;;9.27;;
32760;SDS011;19126;47.472;7.850;2023-06-22T11:12:38;22.77;;;7.45;;
32760;SDS011;19126;47.472;7.850;2023-06-22T11:15:07;19.08;;;7.68;;
32760;SDS011;19126;47.472;7.850;2023-06-22T11:17:35;25.73;;;8.40;;
32760;SDS011;19126;47.472;7.850;2023-06-22T11:20:03;20.27;;;7.55;;
32760;SDS011;19126;47.472;7.850;2023-06-22T11:22:35;13.38;;;7.35;;
32760;SDS011;19126;47.472;7.850;2023-06-22T11:25:04;15.82;;;7.63;;
32760;SDS011;19126;47.472;7.850;2023-06-22T11:27:33;23.85;;;7.75;;
32760;SDS011;19126;47.472;7.850;2023-06-22T11:30:02;24.63;;;9.02;;
32760;SDS011;19126;47.472;7.850;2023-06-22T11:32:30;22.58;;;7.82;;
32760;SDS011;19126;47.472;7.850;2023-06-22T11:34:58;19.85;;;7.47;;
32760;SDS011;19126;47.472;7.850;2023-06-22T11:37:25;24.90;;;7.55;;
32760;SDS011;19126;47.472;7.850;2023-06-22T11:39:52;23.70;;;7.20;;
32760;SDS011;19126;47.472;7.850;2023-06-22T11:42:20;26.33;;;8.35;;
32760;SDS011;19126;47.472;7.850;2023-06-22T11:44:48;26.77;;;7.85;;
32760;SDS011;19126;47.472;7.850;2023-06-22T11:47:17;22.52;;;7.60;;
32760;SDS011;19126;47.472;7.850;2023-06-22T11:49:44;21.30;;;8.15;;
32760;SDS011;19126;47.472;7.850;2023-06-22T11:52:12;17.23;;;6.40;;
32760;SDS011;19126;47.472;7.850;2023-06-22T11:54:39;21.50;;;7.80;;
32760;SDS011;19126;47.472;7.850;2023-06-22T11:57:06;26.58;;;7.85;;
32760;SDS011;19126;47.472;7.850;2023-06-22T11:59:33;25.40;;;7.47;;
32760;SDS011;19126;47.472;7.850;2023-06-22T12:02:01;23.80;;;8.13;;
32760;SDS011;19126;47.472;7.850;2023-06-22T12:04:31;16.10;;;7.20;;
32760;SDS011;19126;47.472;7.850;2023-06-22T12:06:59;25.00;;;7.25;;
32760;SDS011;19126;47.472;7.850;2023-06-22T12:09:27;23.10;;;7.80;;
32760;SDS011;19126;47.472;7.850;2023-06-22T12:11:54;22.50;;;7.50;;
32760;SDS011;19126;47.472;7.850;2023-06-22T12:14:21;20.30;;;6.20;;
32760;SDS011;19126;47.472;7.850;2023-06-22T12:16:49;18.60;;;7.10;;
32760;SDS011;19126;47.472;7.850;2023-06-22T12:19:16;22.15;;;6.45;;
32760;SDS011;19126;47.472;7.850;2023-06-22T12:21:45;19.00;;;7.15;;
32760;SDS011;19126;47.472;7.850;2023-06-22T12:24:12;24.63;;;7.47;;
32760;SDS011;19126;47.472;7.850;2023-06-22T12:26:39;23.38;;;7.75;;
32760;SDS011;19126;47.472;7.850;2023-06-22T12:29:07;33.90;;;7.65;;
32760;SDS011;19126;47.472;7.850;2023-06-22T12:31:35;23.50;;;7.55;;
32760;SDS011;19126;47.472;7.850;2023-06-22T12:34:03;42.17;;;7.90;;
32760;SDS011;19126;47.472;7.850;2023-06-22T12:36:31;21.10;;;6.93;;
32760;SDS011;19126;47.472;7.850;2023-06-22T12:38:59;17.90;;;7.30;;
32760;SDS011;19126;47.472;7.850;2023-06-22T12:41:27;17.23;;;7.45;;
32760;SDS011;19126;47.472;7.850;2023-06-22T12:43:54;23.05;;;6.75;;
32760;SDS011;19126;47.472;7.850;2023-06-22T12:46:21;23.05;;;6.25;;
32760;SDS011;19126;47.472;7.850;2023-06-22T12:48:48;16.98;;;5.97;;
32760;SDS011;19126;47.472;7.850;2023-06-22T12:51:20;20.02;;;6.40;;
32760;SDS011;19126;47.472;7.850;2023-06-22T12:53:48;17.55;;;5.97;;
32760;SDS011;19126;47.472;7.850;2023-06-22T12:56:17;21.23;;;6.72;;
32760;SDS011;19126;47.472;7.850;2023-06-22T12:58:44;28.92;;;6.20;;
32760;SDS011;19126;47.472;7.850;2023-06-22T13:01:12;24.17;;;6.78;;
32760;SDS011;19126;47.472;7.850;2023-06-22T13:03:40;22.63;;;6.10;;
32760;SDS011;19126;47.472;7.850;2023-06-22T13:06:08;35.05;;;8.35;;
32760;SDS011;19126;47.472;7.850;2023-06-22T13:08:35;33.55;;;8.40;;
32760;SDS011;19126;47.472;7.850;2023-06-22T13:11:03;34.80;;;7.35;;
32760;SDS011;19126;47.472;7.850;2023-06-22T13:13:31;20.08;;;7.10;;
32760;SDS011;19126;47.472;7.850;2023-06-22T13:15:59;21.83;;;7.65;;
32760;SDS011;19126;47.472;7.850;2023-06-22T13:18:26;32.83;;;7.28;;
32760;SDS011;19126;47.472;7.850;2023-06-22T13:20:53;21.40;;;6.90;;
32760;SDS011;19126;47.472;7.850;2023-06-22T13:23:21;26.80;;;8.57;;
32760;SDS011;19126;47.472;7.850;2023-06-22T13:25:48;16.45;;;7.13;;
32760;SDS011;19126;47.472;7.850;2023-06-22T13:28:16;20.20;;;7.03;;
32760;SDS011;19126;47.472;7.850;2023-06-22T13:30:47;27.80;;;8.10;;
32760;SDS011;19126;47.472;7.850;2023-06-22T13:33:14;24.27;;;7.78;;
32760;SDS011;19126;47.472;7.850;2023-06-22T13:35:42;31.70;;;7.97;;
32760;SDS011;19126;47.472;7.850;2023-06-22T13:38:09;18.10;;;8.40;;
32760;SDS011;19126;47.472;7.850;2023-06-22T13:40:37;31.98;;;9.00;;
32760;SDS011;19126;47.472;7.850;2023-06-22T13:43:04;33.35;;;8.20;;
32760;SDS011;19126;47.472;7.850;2023-06-22T13:45:32;36.20;;;8.52;;
32760;SDS011;19126;47.472;7.850;2023-06-22T13:48:01;30.23;;;9.25;;
32760;SDS011;19126;47.472;7.850;2023-06-22T13:50:28;28.90;;;8.02;;
32760;SDS011;19126;47.472;7.850;2023-06-22T13:52:55;28.55;;;8.95;;
32760;SDS011;19126;47.472;7.850;2023-06-22T13:55:23;29.17;;;8.55;;
32760;SDS011;19126;47.472;7.850;2023-06-22T13:57:51;28.75;;;8.60;;
32760;SDS011;19126;47.472;7.850;2023-06-22T14:00:19;24.88;;;8.23;;
32760;SDS011;19126;47.472;7.850;2023-06-22T14:02:46;23.02;;;7.97;;
32760;SDS011;19126;47.472;7.850;2023-06-22T14:05:15;23.60;;;7.95;;
32760;SDS011;19126;47.472;7.850;2023-06-22T14:07:47;28.10;;;7.78;;
32760;SDS011;19126;47.472;7.850;2023-06-22T14:10:14;17.52;;;7.88;;
32760;SDS011;19126;47.472;7.850;2023-06-22T14:12:42;30.90;;;8.90;;
32760;SDS011;19126;47.472;7.850;2023-06-22T14:15:10;21.63;;;7.30;;
32760;SDS011;19126;47.472;7.850;2023-06-22T14:17:37;30.48;;;8.52;;
32760;SDS011;19126;47.472;7.850;2023-06-22T14:20:05;23.10;;;8.00;;
32760;SDS011;19126;47.472;7.850;2023-06-22T14:22:35;30.40;;;7.60;;
32760;SDS011;19126;47.472;7.850;2023-06-22T14:25:04;21.77;;;7.07;;
32760;SDS011;19126;47.472;7.850;2023-06-22T14:27:32;20.10;;;7.40;;
32760;SDS011;19126;47.472;7.850;2023-06-22T14:30:00;22.73;;;7.60;;
32760;SDS011;19126;47.472;7.850;2023-06-22T14:32:27;22.75;;;8.15;;
32760;SDS011;19126;47.472;7.850;2023-06-22T14:34:55;25.63;;;8.35;;
32760;SDS011;19126;47.472;7.850;2023-06-22T14:37:23;22.13;;;8.32;;
32760;SDS011;19126;47.472;7.850;2023-06-22T14:39:51;24.48;;;8.82;;